sensor_id;sensor_type;location;lat;lon;timestamp;temperature;humidity
20081;DHT22;10200;49.232;9.222;2023-05-07T00:01:56;16.10;99.90
20081;DHT22;10200;49.232;9.222;2023-05-07T00:04:21;16.00;99.90
20081;DHT22;10200;49.232;9.222;2023-05-07T00:06:47;16.00;99.90
20081;DHT22;10200;49.232;9.222;2023-05-07T00:09:15;15.90;99.90
20081;DHT22;10200;49.232;9.222;2023-05-07T00:11:41;15.90;99.90
20081;DHT22;10200;49.232;9.222;2023-05-07T00:14:07;15.90;99.90
20081;DHT22;10200;49.232;9.222;2023-05-07T00:16:33;15.90;99.90
20081;DHT22;10200;49.232;9.222;2023-05-07T00:19:00;15.80;99.90
20081;DHT22;10200;49.232;9.222;2023-05-07T00:21:25;15.80;99.90
20081;DHT22;10200;49.232;9.222;2023-05-07T00:23:54;15.90;99.90
20081;DHT22;10200;49.232;9.222;2023-05-07T00:26:20;15.80;99.90
20081;DHT22;10200;49.232;9.222;2023-05-07T00:28:46;15.80;99.90
20081;DHT22;10200;49.232;9.222;2023-05-07T00:31:11;15.70;99.90
20081;DHT22;10200;49.232;9.222;2023-05-07T00:33:38;15.70;99.90
20081;DHT22;10200;49.232;9.222;2023-05-07T00:36:04;15.60;99.90
20081;DHT22;10200;49.232;9.222;2023-05-07T00:38:29;15.60;99.90
20081;DHT22;10200;49.232;9.222;2023-05-07T00:40:55;15.50;99.90
20081;DHT22;10200;49.232;9.222;2023-05-07T00:43:21;15.50;99.90
20081;DHT22;10200;49.232;9.222;2023-05-07T00:45:47;15.50;99.90
20081;DHT22;10200;49.232;9.222;2023-05-07T00:48:13;15.40;99.90
20081;DHT22;10200;49.232;9.222;2023-05-07T00:50:39;15.40;99.90
20081;DHT22;10200;49.232;9.222;2023-05-07T00:53:05;15.40;99.90
20081;DHT22;10200;49.232;9.222;2023-05-07T00:55:32;15.50;99.90
20081;DHT22;10200;49.232;9.222;2023-05-07T00:57:58;15.50;99.90
20081;DHT22;10200;49.232;9.222;2023-05-07T01:00:24;15.50;99.90
20081;DHT22;10200;49.232;9.222;2023-05-07T01:02:50;15.40;99.90
20081;DHT22;10200;49.232;9.222;2023-05-07T01:05:17;15.40;99.90
20081;DHT22;10200;49.232;9.222;2023-05-07T01:07:44;15.40;99.90
20081;DHT22;10200;49.232;9.222;2023-05-07T01:10:11;15.50;99.90
20081;DHT22;10200;49.232;9.222;2023-05-07T01:12:38;15.40;99.90
20081;DHT22;10200;49.232;9.222;2023-05-07T01:15:08;15.40;99.90
20081;DHT22;10200;49.232;9.222;2023-05-07T01:17:41;15.40;99.90
20081;DHT22;10200;49.232;9.222;2023-05-07T01:20:08;15.50;99.90
20081;DHT22;10200;49.232;9.222;2023-05-07T01:22:39;15.40;99.90
20081;DHT22;10200;49.232;9.222;2023-05-07T01:25:06;15.30;99.90
20081;DHT22;10200;49.232;9.222;2023-05-07T01:27:35;15.40;99.90
20081;DHT22;10200;49.232;9.222;2023-05-07T01:30:03;15.30;99.90
20081;DHT22;10200;49.232;9.222;2023-05-07T01:32:37;15.30;99.90
20081;DHT22;10200;49.232;9.222;2023-05-07T01:35:09;15.20;99.90
20081;DHT22;10200;49.232;9.222;2023-05-07T01:37:36;15.20;99.90
20081;DHT22;10200;49.232;9.222;2023-05-07T01:40:03;15.10;99.90
20081;DHT22;10200;49.232;9.222;2023-05-07T01:42:30;15.10;99.90
20081;DHT22;10200;49.232;9.222;2023-05-07T01:44:56;15.10;99.90
20081;DHT22;10200;49.232;9.222;2023-05-07T01:47:23;15.00;99.90
20081;DHT22;10200;49.232;9.222;2023-05-07T01:49:49;14.90;99.90
20081;DHT22;10200;49.232;9.222;2023-05-07T01:52:15;14.90;99.90
20081;DHT22;10200;49.232;9.222;2023-05-07T01:54:41;14.90;99.90
20081;DHT22;10200;49.232;9.222;2023-05-07T01:57:08;14.90;99.90
20081;DHT22;10200;49.232;9.222;2023-05-07T01:59:33;15.00;99.90
20081;DHT22;10200;49.232;9.222;2023-05-07T02:01:59;14.90;99.90
20081;DHT22;10200;49.232;9.222;2023-05-07T02:04:26;14.90;99.90
20081;DHT22;10200;49.232;9.222;2023-05-07T02:06:51;14.90;99.90
20081;DHT22;10200;49.232;9.222;2023-05-07T02:09:18;14.90;99.90
20081;DHT22;10200;49.232;9.222;2023-05-07T02:11:44;14.90;99.90
20081;DHT22;10200;49.232;9.222;2023-05-07T02:14:11;14.90;99.90
20081;DHT22;10200;49.232;9.222;2023-05-07T02:16:37;14.90;99.90
20081;DHT22;10200;49.232;9.222;2023-05-07T02:19:05;14.90;99.90
20081;DHT22;10200;49.232;9.222;2023-05-07T02:21:31;14.90;99.90
20081;DHT22;10200;49.232;9.222;2023-05-07T02:23:57;14.80;99.90
20081;DHT22;10200;49.232;9.222;2023-05-07T02:26:23;14.80;99.90
20081;DHT22;10200;49.232;9.222;2023-05-07T02:28:49;14.70;99.90
20081;DHT22;10200;49.232;9.222;2023-05-07T02:31:14;14.70;99.90
20081;DHT22;10200;49.232;9.222;2023-05-07T02:33:40;14.70;99.90
20081;DHT22;10200;49.232;9.222;2023-05-07T02:36:10;14.70;99.90
20081;DHT22;10200;49.232;9.222;2023-05-07T02:38:50;14.60;99.90
20081;DHT22;10200;49.232;9.222;2023-05-07T02:41:15;14.70;99.90
20081;DHT22;10200;49.232;9.222;2023-05-07T02:43:41;14.60;99.90
20081;DHT22;10200;49.232;9.222;2023-05-07T02:46:08;14.60;99.90
20081;DHT22;10200;49.232;9.222;2023-05-07T02:48:35;14.60;99.90
20081;DHT22;10200;49.232;9.222;2023-05-07T02:51:01;14.60;99.90
20081;DHT22;10200;49.232;9.222;2023-05-07T02:53:26;14.50;99.90
20081;DHT22;10200;49.232;9.222;2023-05-07T02:55:53;14.50;99.90
20081;DHT22;10200;49.232;9.222;2023-05-07T02:58:19;14.60;99.90
20081;DHT22;10200;49.232;9.222;2023-05-07T03:00:45;14.50;99.90
20081;DHT22;10200;49.232;9.222;2023-05-07T03:03:10;14.50;99.90
20081;DHT22;10200;49.232;9.222;2023-05-07T03:05:36;14.40;99.90
20081;DHT22;10200;49.232;9.222;2023-05-07T03:08:02;14.50;99.90
20081;DHT22;10200;49.232;9.222;2023-05-07T03:10:29;14.40;99.90
20081;DHT22;10200;49.232;9.222;2023-05-07T03:12:55;14.40;99.90
20081;DHT22;10200;49.232;9.222;2023-05-07T03:15:21;14.40;99.90
20081;DHT22;10200;49.232;9.222;2023-05-07T03:17:48;14.40;99.90
20081;DHT22;10200;49.232;9.222;2023-05-07T03:20:13;14.40;99.90
20081;DHT22;10200;49.232;9.222;2023-05-07T03:22:40;14.30;99.90
20081;DHT22;10200;49.232;9.222;2023-05-07T03:25:08;14.30;99.90
20081;DHT22;10200;49.232;9.222;2023-05-07T03:27:34;14.30;99.90
20081;DHT22;10200;49.232;9.222;2023-05-07T03:30:01;14.30;99.90
20081;DHT22;10200;49.232;9.222;2023-05-07T03:32:27;14.30;99.90
20081;DHT22;10200;49.232;9.222;2023-05-07T03:34:52;14.40;99.90
20081;DHT22;10200;49.232;9.222;2023-05-07T03:37:19;14.30;99.90
20081;DHT22;10200;49.232;9.222;2023-05-07T03:39:44;14.30;99.90
20081;DHT22;10200;49.232;9.222;2023-05-07T03:42:10;14.30;99.90
20081;DHT22;10200;49.232;9.222;2023-05-07T03:44:36;14.30;99.90
20081;DHT22;10200;49.232;9.222;2023-05-07T03:47:03;14.20;99.90
20081;DHT22;10200;49.232;9.222;2023-05-07T03:49:29;14.20;99.90
20081;DHT22;10200;49.232;9.222;2023-05-07T03:51:55;14.20;99.90
20081;DHT22;10200;49.232;9.222;2023-05-07T03:54:21;14.20;99.90
20081;DHT22;10200;49.232;9.222;2023-05-07T03:56:47;14.20;99.90
20081;DHT22;10200;49.232;9.222;2023-05-07T03:59:13;14.10;99.90
20081;DHT22;10200;49.232;9.222;2023-05-07T04:01:40;14.10;99.90
20081;DHT22;10200;49.232;9.222;2023-05-07T04:04:06;14.10;99.90
20081;DHT22;10200;49.232;9.222;2023-05-07T04:06:32;14.10;99.90
20081;DHT22;10200;49.232;9.222;2023-05-07T04:08:59;14.00;99.90
20081;DHT22;10200;49.232;9.222;2023-05-07T04:11:25;14.00;99.90
20081;DHT22;10200;49.232;9.222;2023-05-07T04:13:51;14.00;99.90
20081;DHT22;10200;49.232;9.222;2023-05-07T04:16:18;14.10;99.90
20081;DHT22;10200;49.232;9.222;2023-05-07T04:18:45;14.10;99.90
20081;DHT22;10200;49.232;9.222;2023-05-07T04:21:15;14.10;99.90
20081;DHT22;10200;49.232;9.222;2023-05-07T04:23:41;14.10;99.90
20081;DHT22;10200;49.232;9.222;2023-05-07T04:26:06;14.20;99.90
20081;DHT22;10200;49.232;9.222;2023-05-07T04:28:34;14.30;99.90
20081;DHT22;10200;49.232;9.222;2023-05-07T04:31:01;14.30;99.90
20081;DHT22;10200;49.232;9.222;2023-05-07T04:33:27;14.30;99.90
20081;DHT22;10200;49.232;9.222;2023-05-07T04:35:53;14.30;99.90
20081;DHT22;10200;49.232;9.222;2023-05-07T04:38:19;14.40;99.90
20081;DHT22;10200;49.232;9.222;2023-05-07T04:40:45;14.50;99.90
20081;DHT22;10200;49.232;9.222;2023-05-07T04:43:12;14.50;99.90
20081;DHT22;10200;49.232;9.222;2023-05-07T04:45:38;14.60;99.90
20081;DHT22;10200;49.232;9.222;2023-05-07T04:48:07;14.60;99.90
20081;DHT22;10200;49.232;9.222;2023-05-07T04:50:33;14.60;99.90
20081;DHT22;10200;49.232;9.222;2023-05-07T04:53:00;14.70;99.90
20081;DHT22;10200;49.232;9.222;2023-05-07T04:55:27;14.70;99.90
20081;DHT22;10200;49.232;9.222;2023-05-07T04:57:54;14.70;99.90
20081;DHT22;10200;49.232;9.222;2023-05-07T05:00:20;14.70;99.90
20081;DHT22;10200;49.232;9.222;2023-05-07T05:02:49;14.80;99.90
20081;DHT22;10200;49.232;9.222;2023-05-07T05:05:15;14.90;99.90
20081;DHT22;10200;49.232;9.222;2023-05-07T05:07:41;15.10;99.90
20081;DHT22;10200;49.232;9.222;2023-05-07T05:10:07;15.40;99.90
20081;DHT22;10200;49.232;9.222;2023-05-07T05:12:33;15.70;99.90
20081;DHT22;10200;49.232;9.222;2023-05-07T05:14:58;16.00;99.90
20081;DHT22;10200;49.232;9.222;2023-05-07T05:17:24;16.20;99.90
20081;DHT22;10200;49.232;9.222;2023-05-07T05:19:50;16.20;99.90
20081;DHT22;10200;49.232;9.222;2023-05-07T05:22:16;16.20;99.90
20081;DHT22;10200;49.232;9.222;2023-05-07T05:24:41;16.50;99.90
20081;DHT22;10200;49.232;9.222;2023-05-07T05:27:07;16.80;99.90
20081;DHT22;10200;49.232;9.222;2023-05-07T05:29:33;16.90;99.90
20081;DHT22;10200;49.232;9.222;2023-05-07T05:31:59;17.00;99.90
20081;DHT22;10200;49.232;9.222;2023-05-07T05:34:24;17.00;99.90
20081;DHT22;10200;49.232;9.222;2023-05-07T05:36:50;17.00;99.90
20081;DHT22;10200;49.232;9.222;2023-05-07T05:39:16;17.30;99.90
20081;DHT22;10200;49.232;9.222;2023-05-07T05:41:44;17.30;99.90
20081;DHT22;10200;49.232;9.222;2023-05-07T05:44:12;17.40;99.90
20081;DHT22;10200;49.232;9.222;2023-05-07T05:46:38;17.70;99.90
20081;DHT22;10200;49.232;9.222;2023-05-07T05:49:04;18.00;99.90
20081;DHT22;10200;49.232;9.222;2023-05-07T05:51:30;18.30;99.90
20081;DHT22;10200;49.232;9.222;2023-05-07T05:53:57;18.80;99.90
20081;DHT22;10200;49.232;9.222;2023-05-07T05:56:26;19.40;97.90
20081;DHT22;10200;49.232;9.222;2023-05-07T05:58:52;20.00;96.70
20081;DHT22;10200;49.232;9.222;2023-05-07T06:01:19;20.20;92.70
20081;DHT22;10200;49.232;9.222;2023-05-07T06:03:45;20.40;91.70
20081;DHT22;10200;49.232;9.222;2023-05-07T06:06:13;20.40;89.20
20081;DHT22;10200;49.232;9.222;2023-05-07T06:08:41;20.50;87.50
20081;DHT22;10200;49.232;9.222;2023-05-07T06:11:06;20.30;86.40
20081;DHT22;10200;49.232;9.222;2023-05-07T06:13:35;20.40;85.80
20081;DHT22;10200;49.232;9.222;2023-05-07T06:16:01;20.40;85.60
20081;DHT22;10200;49.232;9.222;2023-05-07T06:18:27;20.50;85.70
20081;DHT22;10200;49.232;9.222;2023-05-07T06:20:53;20.40;82.20
20081;DHT22;10200;49.232;9.222;2023-05-07T06:23:20;20.00;82.30
20081;DHT22;10200;49.232;9.222;2023-05-07T06:25:49;19.90;84.40
20081;DHT22;10200;49.232;9.222;2023-05-07T06:28:17;19.70;83.80
20081;DHT22;10200;49.232;9.222;2023-05-07T06:30:46;19.60;84.10
20081;DHT22;10200;49.232;9.222;2023-05-07T06:33:12;19.40;85.70
20081;DHT22;10200;49.232;9.222;2023-05-07T06:35:38;19.20;85.40
20081;DHT22;10200;49.232;9.222;2023-05-07T06:38:03;19.20;87.20
20081;DHT22;10200;49.232;9.222;2023-05-07T06:40:29;19.00;87.40
20081;DHT22;10200;49.232;9.222;2023-05-07T06:42:55;19.00;88.60
20081;DHT22;10200;49.232;9.222;2023-05-07T06:45:21;19.00;88.10
20081;DHT22;10200;49.232;9.222;2023-05-07T06:47:46;18.80;89.10
20081;DHT22;10200;49.232;9.222;2023-05-07T06:50:14;18.60;88.90
20081;DHT22;10200;49.232;9.222;2023-05-07T06:52:42;18.50;90.20
20081;DHT22;10200;49.232;9.222;2023-05-07T06:55:08;18.60;91.40
20081;DHT22;10200;49.232;9.222;2023-05-07T06:57:34;18.70;91.40
20081;DHT22;10200;49.232;9.222;2023-05-07T07:00:00;19.00;92.00
20081;DHT22;10200;49.232;9.222;2023-05-07T07:02:26;19.30;91.50
20081;DHT22;10200;49.232;9.222;2023-05-07T07:04:53;19.30;88.80
20081;DHT22;10200;49.232;9.222;2023-05-07T07:07:18;19.10;89.20
20081;DHT22;10200;49.232;9.222;2023-05-07T07:09:44;19.10;90.50
20081;DHT22;10200;49.232;9.222;2023-05-07T07:12:10;19.40;91.80
20081;DHT22;10200;49.232;9.222;2023-05-07T07:14:36;20.00;91.30
20081;DHT22;10200;49.232;9.222;2023-05-07T07:17:01;20.50;90.90
20081;DHT22;10200;49.232;9.222;2023-05-07T07:19:27;21.00;87.40
20081;DHT22;10200;49.232;9.222;2023-05-07T07:21:56;21.10;84.00
20081;DHT22;10200;49.232;9.222;2023-05-07T07:24:21;21.40;82.80
20081;DHT22;10200;49.232;9.222;2023-05-07T07:26:47;21.80;83.40
20081;DHT22;10200;49.232;9.222;2023-05-07T07:29:14;22.00;79.10
20081;DHT22;10200;49.232;9.222;2023-05-07T07:31:40;22.10;79.40
20081;DHT22;10200;49.232;9.222;2023-05-07T07:34:05;22.40;79.00
20081;DHT22;10200;49.232;9.222;2023-05-07T07:36:31;23.00;77.10
20081;DHT22;10200;49.232;9.222;2023-05-07T07:38:57;23.40;75.90
20081;DHT22;10200;49.232;9.222;2023-05-07T07:41:23;23.70;73.00
20081;DHT22;10200;49.232;9.222;2023-05-07T07:43:49;23.80;70.50
20081;DHT22;10200;49.232;9.222;2023-05-07T07:46:17;23.90;69.90
20081;DHT22;10200;49.232;9.222;2023-05-07T07:48:43;24.20;69.60
20081;DHT22;10200;49.232;9.222;2023-05-07T07:51:09;24.70;68.20
20081;DHT22;10200;49.232;9.222;2023-05-07T07:53:35;24.40;64.30
20081;DHT22;10200;49.232;9.222;2023-05-07T07:56:01;23.90;64.60
20081;DHT22;10200;49.232;9.222;2023-05-07T07:58:26;23.50;66.30
20081;DHT22;10200;49.232;9.222;2023-05-07T08:00:52;23.70;68.80
20081;DHT22;10200;49.232;9.222;2023-05-07T08:03:38;23.60;67.60
20081;DHT22;10200;49.232;9.222;2023-05-07T08:06:05;23.50;66.70
20081;DHT22;10200;49.232;9.222;2023-05-07T08:08:32;23.10;67.50
20081;DHT22;10200;49.232;9.222;2023-05-07T08:10:58;22.90;69.70
20081;DHT22;10200;49.232;9.222;2023-05-07T08:13:23;23.30;72.00
20081;DHT22;10200;49.232;9.222;2023-05-07T08:15:49;23.80;70.70
20081;DHT22;10200;49.232;9.222;2023-05-07T08:18:15;24.30;69.60
20081;DHT22;10200;49.232;9.222;2023-05-07T08:20:40;24.90;69.20
20081;DHT22;10200;49.232;9.222;2023-05-07T08:23:06;25.20;64.50
20081;DHT22;10200;49.232;9.222;2023-05-07T08:25:33;25.50;64.00
20081;DHT22;10200;49.232;9.222;2023-05-07T08:28:00;25.80;61.50
20081;DHT22;10200;49.232;9.222;2023-05-07T08:30:27;25.90;61.00
20081;DHT22;10200;49.232;9.222;2023-05-07T08:32:53;26.30;62.10
20081;DHT22;10200;49.232;9.222;2023-05-07T08:35:19;26.50;59.20
20081;DHT22;10200;49.232;9.222;2023-05-07T08:37:44;26.10;59.10
20081;DHT22;10200;49.232;9.222;2023-05-07T08:40:10;25.70;59.60
20081;DHT22;10200;49.232;9.222;2023-05-07T08:42:36;25.50;62.30
20081;DHT22;10200;49.232;9.222;2023-05-07T08:45:05;26.00;63.70
20081;DHT22;10200;49.232;9.222;2023-05-07T08:47:47;26.30;61.10
20081;DHT22;10200;49.232;9.222;2023-05-07T08:50:14;26.80;61.20
20081;DHT22;10200;49.232;9.222;2023-05-07T08:52:41;26.90;59.40
20081;DHT22;10200;49.232;9.222;2023-05-07T08:55:08;26.90;58.50
20081;DHT22;10200;49.232;9.222;2023-05-07T08:57:34;27.20;59.00
20081;DHT22;10200;49.232;9.222;2023-05-07T09:00:00;27.60;58.20
20081;DHT22;10200;49.232;9.222;2023-05-07T09:02:27;27.80;56.20
20081;DHT22;10200;49.232;9.222;2023-05-07T09:04:53;28.00;54.80
20081;DHT22;10200;49.232;9.222;2023-05-07T09:07:20;27.90;54.50
20081;DHT22;10200;49.232;9.222;2023-05-07T09:09:46;28.00;56.30
20081;DHT22;10200;49.232;9.222;2023-05-07T09:12:12;28.10;55.80
20081;DHT22;10200;49.232;9.222;2023-05-07T09:14:38;28.30;56.40
20081;DHT22;10200;49.232;9.222;2023-05-07T09:17:04;28.40;53.60
20081;DHT22;10200;49.232;9.222;2023-05-07T09:19:30;28.20;54.80
20081;DHT22;10200;49.232;9.222;2023-05-07T09:22:05;28.00;53.10
20081;DHT22;10200;49.232;9.222;2023-05-07T09:24:32;27.70;53.60
20081;DHT22;10200;49.232;9.222;2023-05-07T09:27:04;27.80;54.60
20081;DHT22;10200;49.232;9.222;2023-05-07T09:29:30;27.70;55.50
20081;DHT22;10200;49.232;9.222;2023-05-07T09:32:01;27.80;56.00
20081;DHT22;10200;49.232;9.222;2023-05-07T09:34:29;28.20;55.50
20081;DHT22;10200;49.232;9.222;2023-05-07T09:36:55;28.50;54.70
20081;DHT22;10200;49.232;9.222;2023-05-07T09:39:23;28.40;52.60
20081;DHT22;10200;49.232;9.222;2023-05-07T09:41:49;28.40;54.80
20081;DHT22;10200;49.232;9.222;2023-05-07T09:44:16;28.50;54.00
20081;DHT22;10200;49.232;9.222;2023-05-07T09:46:43;28.70;55.50
20081;DHT22;10200;49.232;9.222;2023-05-07T09:49:19;28.80;54.80
20081;DHT22;10200;49.232;9.222;2023-05-07T09:51:50;29.00;54.70
20081;DHT22;10200;49.232;9.222;2023-05-07T09:54:16;29.10;54.10
20081;DHT22;10200;49.232;9.222;2023-05-07T09:56:46;29.10;53.80
20081;DHT22;10200;49.232;9.222;2023-05-07T09:59:14;29.30;53.00
20081;DHT22;10200;49.232;9.222;2023-05-07T10:01:43;29.20;52.10
20081;DHT22;10200;49.232;9.222;2023-05-07T10:04:13;29.20;52.90
20081;DHT22;10200;49.232;9.222;2023-05-07T10:06:40;29.20;53.20
20081;DHT22;10200;49.232;9.222;2023-05-07T10:09:06;29.10;52.50
20081;DHT22;10200;49.232;9.222;2023-05-07T10:11:35;29.20;52.70
20081;DHT22;10200;49.232;9.222;2023-05-07T10:14:05;29.10;52.50
20081;DHT22;10200;49.232;9.222;2023-05-07T10:16:36;28.90;51.90
20081;DHT22;10200;49.232;9.222;2023-05-07T10:19:06;29.00;53.00
20081;DHT22;10200;49.232;9.222;2023-05-07T10:21:36;28.80;51.20
20081;DHT22;10200;49.232;9.222;2023-05-07T10:24:55;28.80;52.30
20081;DHT22;10200;49.232;9.222;2023-05-07T10:26:57;28.80;53.50
20081;DHT22;10200;49.232;9.222;2023-05-07T10:29:37;29.00;53.20
20081;DHT22;10200;49.232;9.222;2023-05-07T10:34:40;28.90;52.60
20081;DHT22;10200;49.232;9.222;2023-05-07T10:37:08;28.90;52.50
20081;DHT22;10200;49.232;9.222;2023-05-07T10:39:34;28.60;51.30
20081;DHT22;10200;49.232;9.222;2023-05-07T10:42:10;28.50;52.50
20081;DHT22;10200;49.232;9.222;2023-05-07T10:44:36;28.50;52.40
20081;DHT22;10200;49.232;9.222;2023-05-07T10:47:10;28.40;52.30
20081;DHT22;10200;49.232;9.222;2023-05-07T10:52:33;27.90;52.50
20081;DHT22;10200;49.232;9.222;2023-05-07T10:57:44;27.60;51.40
20081;DHT22;10200;49.232;9.222;2023-05-07T11:05:32;27.80;51.40
20081;DHT22;10200;49.232;9.222;2023-05-07T11:08:01;27.90;51.10
20081;DHT22;10200;49.232;9.222;2023-05-07T11:10:52;28.10;50.00
20081;DHT22;10200;49.232;9.222;2023-05-07T11:13:40;28.10;50.40
20081;DHT22;10200;49.232;9.222;2023-05-07T11:16:19;28.10;49.70
20081;DHT22;10200;49.232;9.222;2023-05-07T11:18:52;28.00;49.50
20081;DHT22;10200;49.232;9.222;2023-05-07T11:21:41;27.90;50.20
20081;DHT22;10200;49.232;9.222;2023-05-07T11:24:08;28.00;50.30
20081;DHT22;10200;49.232;9.222;2023-05-07T11:26:50;28.10;50.50
20081;DHT22;10200;49.232;9.222;2023-05-07T11:29:21;28.10;49.30
20081;DHT22;10200;49.232;9.222;2023-05-07T11:31:51;28.20;48.80
20081;DHT22;10200;49.232;9.222;2023-05-07T11:34:25;28.30;50.20
20081;DHT22;10200;49.232;9.222;2023-05-07T11:36:51;28.30;49.70
20081;DHT22;10200;49.232;9.222;2023-05-07T11:41:53;28.10;49.70
20081;DHT22;10200;49.232;9.222;2023-05-07T11:44:19;28.10;48.50
20081;DHT22;10200;49.232;9.222;2023-05-07T11:46:46;28.10;48.70
20081;DHT22;10200;49.232;9.222;2023-05-07T11:49:12;28.10;48.60
20081;DHT22;10200;49.232;9.222;2023-05-07T11:51:38;27.90;48.40
20081;DHT22;10200;49.232;9.222;2023-05-07T11:54:05;27.70;48.70
20081;DHT22;10200;49.232;9.222;2023-05-07T11:56:35;27.60;48.90
20081;DHT22;10200;49.232;9.222;2023-05-07T11:59:02;27.50;48.70
20081;DHT22;10200;49.232;9.222;2023-05-07T12:01:28;27.60;49.10
20081;DHT22;10200;49.232;9.222;2023-05-07T12:03:54;27.60;48.30
20081;DHT22;10200;49.232;9.222;2023-05-07T12:06:20;27.60;48.30
20081;DHT22;10200;49.232;9.222;2023-05-07T12:08:46;27.70;48.70
20081;DHT22;10200;49.232;9.222;2023-05-07T12:11:25;27.80;48.40
20081;DHT22;10200;49.232;9.222;2023-05-07T12:13:51;27.70;47.90
20081;DHT22;10200;49.232;9.222;2023-05-07T12:16:19;27.90;48.30
20081;DHT22;10200;49.232;9.222;2023-05-07T12:18:46;27.90;48.00
20081;DHT22;10200;49.232;9.222;2023-05-07T12:21:12;27.80;47.00
20081;DHT22;10200;49.232;9.222;2023-05-07T12:23:40;27.90;47.60
20081;DHT22;10200;49.232;9.222;2023-05-07T12:26:08;27.80;48.70
20081;DHT22;10200;49.232;9.222;2023-05-07T12:28:38;27.80;48.80
20081;DHT22;10200;49.232;9.222;2023-05-07T12:31:07;27.80;47.90
20081;DHT22;10200;49.232;9.222;2023-05-07T12:33:34;27.80;48.40
20081;DHT22;10200;49.232;9.222;2023-05-07T12:36:04;27.70;47.40
20081;DHT22;10200;49.232;9.222;2023-05-07T12:38:38;27.70;47.90
20081;DHT22;10200;49.232;9.222;2023-05-07T12:41:05;27.70;47.70
20081;DHT22;10200;49.232;9.222;2023-05-07T12:43:32;27.60;47.50
20081;DHT22;10200;49.232;9.222;2023-05-07T12:46:01;27.60;47.90
20081;DHT22;10200;49.232;9.222;2023-05-07T12:48:27;27.60;47.90
20081;DHT22;10200;49.232;9.222;2023-05-07T12:50:54;27.60;47.90
20081;DHT22;10200;49.232;9.222;2023-05-07T12:53:23;27.70;48.60
20081;DHT22;10200;49.232;9.222;2023-05-07T12:55:55;27.80;47.60
20081;DHT22;10200;49.232;9.222;2023-05-07T12:58:31;27.70;48.30
20081;DHT22;10200;49.232;9.222;2023-05-07T13:01:00;27.60;47.70
20081;DHT22;10200;49.232;9.222;2023-05-07T13:03:33;27.60;47.90
20081;DHT22;10200;49.232;9.222;2023-05-07T13:06:06;27.80;47.80
20081;DHT22;10200;49.232;9.222;2023-05-07T13:08:39;27.80;47.50
20081;DHT22;10200;49.232;9.222;2023-05-07T13:11:09;27.70;47.40
20081;DHT22;10200;49.232;9.222;2023-05-07T13:13:37;27.50;47.80
20081;DHT22;10200;49.232;9.222;2023-05-07T13:16:05;27.40;48.70
20081;DHT22;10200;49.232;9.222;2023-05-07T13:21:01;26.80;48.10
20081;DHT22;10200;49.232;9.222;2023-05-07T13:23:27;26.70;48.90
20081;DHT22;10200;49.232;9.222;2023-05-07T13:25:53;26.60;49.50
20081;DHT22;10200;49.232;9.222;2023-05-07T13:28:19;26.60;50.00
20081;DHT22;10200;49.232;9.222;2023-05-07T13:30:46;26.70;50.80
20081;DHT22;10200;49.232;9.222;2023-05-07T13:33:12;26.60;50.80
20081;DHT22;10200;49.232;9.222;2023-05-07T13:35:38;26.40;49.90
20081;DHT22;10200;49.232;9.222;2023-05-07T13:38:05;26.30;50.10
20081;DHT22;10200;49.232;9.222;2023-05-07T13:40:32;26.10;51.20
20081;DHT22;10200;49.232;9.222;2023-05-07T13:42:58;26.00;51.80
20081;DHT22;10200;49.232;9.222;2023-05-07T13:45:28;26.00;52.70
20081;DHT22;10200;49.232;9.222;2023-05-07T13:47:58;25.90;53.20
20081;DHT22;10200;49.232;9.222;2023-05-07T13:50:40;25.90;53.30
20081;DHT22;10200;49.232;9.222;2023-05-07T13:53:07;25.90;53.20
20081;DHT22;10200;49.232;9.222;2023-05-07T13:55:33;25.80;52.30
20081;DHT22;10200;49.232;9.222;2023-05-07T13:58:00;25.80;52.80
20081;DHT22;10200;49.232;9.222;2023-05-07T14:00:27;25.70;52.70
20081;DHT22;10200;49.232;9.222;2023-05-07T14:02:54;25.70;53.20
20081;DHT22;10200;49.232;9.222;2023-05-07T14:05:20;25.60;53.50
20081;DHT22;10200;49.232;9.222;2023-05-07T14:07:46;25.50;53.10
20081;DHT22;10200;49.232;9.222;2023-05-07T14:10:13;25.40;53.20
20081;DHT22;10200;49.232;9.222;2023-05-07T14:12:38;25.30;53.20
20081;DHT22;10200;49.232;9.222;2023-05-07T14:15:04;25.10;53.50
20081;DHT22;10200;49.232;9.222;2023-05-07T14:17:30;25.10;54.00
20081;DHT22;10200;49.232;9.222;2023-05-07T14:19:58;24.90;54.20
20081;DHT22;10200;49.232;9.222;2023-05-07T14:22:25;24.80;54.40
20081;DHT22;10200;49.232;9.222;2023-05-07T14:24:52;24.70;54.80
20081;DHT22;10200;49.232;9.222;2023-05-07T14:27:18;24.60;54.90
20081;DHT22;10200;49.232;9.222;2023-05-07T14:29:45;24.50;55.30
20081;DHT22;10200;49.232;9.222;2023-05-07T14:32:19;24.50;55.70
20081;DHT22;10200;49.232;9.222;2023-05-07T14:34:47;24.40;56.40
20081;DHT22;10200;49.232;9.222;2023-05-07T14:37:13;24.30;57.30
20081;DHT22;10200;49.232;9.222;2023-05-07T14:39:39;24.10;59.00
20081;DHT22;10200;49.232;9.222;2023-05-07T14:42:05;23.80;60.90
20081;DHT22;10200;49.232;9.222;2023-05-07T14:44:36;23.40;63.00
20081;DHT22;10200;49.232;9.222;2023-05-07T14:47:01;23.10;64.80
20081;DHT22;10200;49.232;9.222;2023-05-07T14:49:27;22.70;67.60
20081;DHT22;10200;49.232;9.222;2023-05-07T14:51:56;22.40;70.40
20081;DHT22;10200;49.232;9.222;2023-05-07T14:54:23;22.10;73.50
20081;DHT22;10200;49.232;9.222;2023-05-07T14:56:50;21.90;76.20
20081;DHT22;10200;49.232;9.222;2023-05-07T14:59:16;21.80;78.20
20081;DHT22;10200;49.232;9.222;2023-05-07T15:01:45;21.60;79.60
20081;DHT22;10200;49.232;9.222;2023-05-07T15:04:11;21.40;83.20
20081;DHT22;10200;49.232;9.222;2023-05-07T15:06:37;21.30;87.00
20081;DHT22;10200;49.232;9.222;2023-05-07T15:09:02;21.10;92.40
20081;DHT22;10200;49.232;9.222;2023-05-07T15:11:28;20.80;97.70
20081;DHT22;10200;49.232;9.222;2023-05-07T15:13:54;20.60;99.90
20081;DHT22;10200;49.232;9.222;2023-05-07T15:16:20;20.40;99.90
20081;DHT22;10200;49.232;9.222;2023-05-07T15:18:45;20.20;99.90
20081;DHT22;10200;49.232;9.222;2023-05-07T15:21:11;20.00;99.90
20081;DHT22;10200;49.232;9.222;2023-05-07T15:23:37;19.90;99.90
20081;DHT22;10200;49.232;9.222;2023-05-07T15:26:04;19.90;99.90
20081;DHT22;10200;49.232;9.222;2023-05-07T15:28:30;19.90;99.90
20081;DHT22;10200;49.232;9.222;2023-05-07T15:30:56;20.00;99.90
20081;DHT22;10200;49.232;9.222;2023-05-07T15:33:22;20.10;99.90
20081;DHT22;10200;49.232;9.222;2023-05-07T15:35:47;20.10;99.90
20081;DHT22;10200;49.232;9.222;2023-05-07T15:38:13;20.10;99.90
20081;DHT22;10200;49.232;9.222;2023-05-07T15:40:39;20.10;99.90
20081;DHT22;10200;49.232;9.222;2023-05-07T15:43:09;20.10;99.90
20081;DHT22;10200;49.232;9.222;2023-05-07T15:45:44;20.10;99.90
20081;DHT22;10200;49.232;9.222;2023-05-07T15:48:10;20.10;99.90
20081;DHT22;10200;49.232;9.222;2023-05-07T15:50:36;20.00;99.90